Time;durP1;ratioP1;P1;durP2;ratioP2;P2;SDS_P1;SDS_P2;PMS_P1;PMS_P2;Temp;Humidity;BMP_temperature;BMP_pressure;BME280_temperature;BME280_humidity;BME280_pressure;Samples;Min_cycle;Max_cycle;Signal;HPM_P1;HPM_P2
2022/01/05 00:01:09;;;;;;;12.65;4.18;;;;;;;;;;5087374;28;20024;-62
2022/01/05 00:03:35;;;;;;;9.13;4.15;;;;;;;;;;5079806;28;20059;-62
2022/01/05 00:06:00;;;;;;;13.18;4.40;;;;;;;;;;5052534;28;20135;-61
2022/01/05 00:08:26;;;;;;;13.73;4.88;;;;;;;;;;5067184;28;20111;-61
2022/01/05 00:10:52;;;;;;;10.63;3.92;;;;;;;;;;5062684;28;20113;-61
2022/01/05 00:13:18;;;;;;;8.07;3.75;;;;;;;;;;5037334;28;20480;-61
2022/01/05 00:15:43;;;;;;;11.70;4.05;;;;;;;;;;5073567;28;20111;-60
2022/01/05 00:18:08;;;;;;;9.90;3.38;;;;;;;;;;5073654;28;20029;-60
2022/01/05 00:20:34;;;;;;;6.63;3.38;;;;;;;;;;5073415;28;20456;-62
2022/01/05 00:22:59;;;;;;;10.25;3.92;;;;;;;;;;5073451;28;20056;-62
2022/01/05 00:25:25;;;;;;;14.60;4.07;;;;;;;;;;5055574;28;20024;-60
2022/01/05 00:27:50;;;;;;;11.45;3.78;;;;;;;;;;5073282;28;20495;-60
2022/01/05 00:30:15;;;;;;;10.50;3.60;;;;;;;;;;5073217;28;20031;-60
2022/01/05 00:32:41;;;;;;;13.75;3.67;;;;;;;;;;5073339;28;20025;-60
2022/01/05 00:35:06;;;;;;;10.27;3.97;;;;;;;;;;5073305;28;20092;-61
2022/01/05 00:37:32;;;;;;;9.13;3.38;;;;;;;;;;5073453;28;20529;-60
2022/01/05 00:39:57;;;;;;;10.18;3.47;;;;;;;;;;5038730;28;20547;-60
2022/01/05 00:42:24;;;;;;;16.25;3.75;;;;;;;;;;5073153;28;20063;-60
2022/01/05 00:44:49;;;;;;;10.35;3.60;;;;;;;;;;5073195;28;20067;-60
2022/01/05 00:47:16;;;;;;;9.80;4.03;;;;;;;;;;5073106;28;20059;-60
2022/01/05 00:49:41;;;;;;;17.10;4.95;;;;;;;;;;5038463;28;20039;-60
2022/01/05 00:52:07;;;;;;;11.38;3.47;;;;;;;;;;5055056;28;20036;-60
2022/01/05 00:54:32;;;;;;;16.20;4.05;;;;;;;;;;5073188;28;20036;-61
2022/01/05 00:56:58;;;;;;;9.02;3.83;;;;;;;;;;5073018;28;20395;-60
2022/01/05 00:59:24;;;;;;;8.77;3.30;;;;;;;;;;5072806;28;20399;-59
2022/01/05 01:01:49;;;;;;;22.38;5.10;;;;;;;;;;5054981;28;20576;-59
2022/01/05 01:04:15;;;;;;;12.82;3.10;;;;;;;;;;5054766;28;20056;-60
2022/01/05 01:06:41;;;;;;;7.88;3.45;;;;;;;;;;5072736;28;20032;-61
2022/01/05 01:09:07;;;;;;;10.75;3.13;;;;;;;;;;5072459;28;20128;-59
2022/01/05 01:11:32;;;;;;;11.70;3.78;;;;;;;;;;5072697;28;20103;-60
2022/01/05 01:13:57;;;;;;;12.98;3.67;;;;;;;;;;5072668;28;20036;-59
2022/01/05 01:16:23;;;;;;;11.88;3.40;;;;;;;;;;5072872;28;20488;-59
2022/01/05 01:18:49;;;;;;;9.30;3.72;;;;;;;;;;5072339;28;20036;-59
2022/01/05 01:21:14;;;;;;;11.85;3.42;;;;;;;;;;5072544;28;20048;-60
2022/01/05 01:23:42;;;;;;;10.23;3.42;;;;;;;;;;5072345;28;20036;-60
2022/01/05 01:26:08;;;;;;;14.85;3.47;;;;;;;;;;5038024;28;20124;-60
2022/01/05 01:28:34;;;;;;;10.63;4.03;;;;;;;;;;5072296;28;20119;-60
2022/01/05 01:30:59;;;;;;;10.85;3.80;;;;;;;;;;5072594;28;20028;-60
2022/01/05 01:33:24;;;;;;;10.20;3.55;;;;;;;;;;5072546;28;20032;-60
2022/01/05 01:35:50;;;;;;;9.85;3.67;;;;;;;;;;5072343;28;20495;-60
2022/01/05 01:38:15;;;;;;;9.77;3.63;;;;;;;;;;5072155;28;20035;-60
2022/01/05 01:40:41;;;;;;;12.63;3.40;;;;;;;;;;5072202;28;20056;-60
2022/01/05 01:43:06;;;;;;;8.73;3.30;;;;;;;;;;5072328;28;20028;-60
2022/01/05 01:45:34;;;;;;;13.68;4.32;;;;;;;;;;5072275;28;20029;-61
2022/01/05 01:47:59;;;;;;;8.65;3.63;;;;;;;;;;5054541;28;20407;-60
2022/01/05 01:50:25;;;;;;;11.45;3.05;;;;;;;;;;5072257;28;20037;-60
2022/01/05 01:52:50;;;;;;;9.02;3.30;;;;;;;;;;5072137;28;20046;-61
2022/01/05 01:55:16;;;;;;;9.45;3.30;;;;;;;;;;5037658;28;20426;-60
2022/01/05 01:57:43;;;;;;;10.70;3.42;;;;;;;;;;5071949;28;20028;-60
2022/01/05 02:00:09;;;;;;;9.05;3.17;;;;;;;;;;5037528;28;20025;-60
2022/01/05 02:02:39;;;;;;;8.82;3.33;;;;;;;;;;5054852;28;20039;-61
2022/01/05 02:05:06;;;;;;;9.82;3.47;;;;;;;;;;5071992;28;20033;-61
2022/01/05 02:07:31;;;;;;;12.75;3.78;;;;;;;;;;5053820;28;20094;-60
2022/01/05 02:09:57;;;;;;;12.45;3.38;;;;;;;;;;5071943;28;20036;-61
2022/01/05 02:12:26;;;;;;;11.77;3.22;;;;;;;;;;5070740;28;20056;-59
2022/01/05 02:14:52;;;;;;;9.73;2.97;;;;;;;;;;5037403;28;20067;-60
2022/01/05 02:17:21;;;;;;;10.85;4.07;;;;;;;;;;5053998;28;20032;-59
2022/01/05 02:19:47;;;;;;;10.27;3.83;;;;;;;;;;5054010;28;20037;-60
2022/01/05 02:22:12;;;;;;;10.88;3.47;;;;;;;;;;5071664;28;20559;-60
2022/01/05 02:24:38;;;;;;;8.73;3.45;;;;;;;;;;5037267;28;20041;-59
2022/01/05 02:27:03;;;;;;;10.85;3.35;;;;;;;;;;5053818;28;20033;-60
2022/01/05 02:29:29;;;;;;;8.60;3.40;;;;;;;;;;5071685;28;20036;-61
2022/01/05 02:31:57;;;;;;;8.63;3.83;;;;;;;;;;5073912;28;20031;-59
2022/01/05 02:34:22;;;;;;;6.90;3.00;;;;;;;;;;5057583;28;20468;-59
2022/01/05 02:36:47;;;;;;;10.98;3.60;;;;;;;;;;5075284;28;20025;-60
2022/01/05 02:39:13;;;;;;;8.98;3.10;;;;;;;;;;5040465;28;20375;-60
2022/01/05 02:41:38;;;;;;;12.02;3.50;;;;;;;;;;5075080;28;20044;-59
2022/01/05 02:44:04;;;;;;;9.68;3.60;;;;;;;;;;5057256;28;20043;-60
2022/01/05 02:46:29;;;;;;;11.48;3.42;;;;;;;;;;5075017;28;20028;-60
2022/01/05 02:48:55;;;;;;;9.77;3.50;;;;;;;;;;5075117;28;20111;-60
2022/01/05 02:51:20;;;;;;;7.28;2.97;;;;;;;;;;5075120;28;20028;-60
2022/01/05 02:53:46;;;;;;;10.38;3.63;;;;;;;;;;5040451;28;20072;-60
2022/01/05 02:56:11;;;;;;;11.65;3.45;;;;;;;;;;5057068;28;20483;-60
2022/01/05 02:58:37;;;;;;;8.73;3.42;;;;;;;;;;5074686;28;20040;-60
2022/01/05 03:01:03;;;;;;;12.70;3.45;;;;;;;;;;5056985;28;20039;-60
2022/01/05 03:03:28;;;;;;;8.70;3.53;;;;;;;;;;5074742;28;20044;-60
2022/01/05 03:05:54;;;;;;;11.80;3.90;;;;;;;;;;5040061;28;20555;-60
2022/01/05 03:08:19;;;;;;;10.02;3.80;;;;;;;;;;5074616;28;20396;-60
2022/01/05 03:10:45;;;;;;;9.18;3.85;;;;;;;;;;5074723;28;20369;-59
2022/01/05 03:13:10;;;;;;;9.52;3.65;;;;;;;;;;5074685;28;20040;-61
2022/01/05 03:15:36;;;;;;;10.73;3.58;;;;;;;;;;5074679;28;20409;-60
2022/01/05 03:18:02;;;;;;;15.40;4.97;;;;;;;;;;5074673;28;20032;-60
2022/01/05 03:20:29;;;;;;;12.02;3.90;;;;;;;;;;5056671;28;20422;-61
2022/01/05 03:22:55;;;;;;;11.43;3.80;;;;;;;;;;5039830;28;20140;-59
2022/01/05 03:25:20;;;;;;;8.65;3.75;;;;;;;;;;5056574;28;20450;-60
2022/01/05 03:27:46;;;;;;;11.80;3.40;;;;;;;;;;5056245;28;20427;-60
2022/01/05 03:30:13;;;;;;;12.80;3.95;;;;;;;;;;5056422;28;20056;-60
2022/01/05 03:32:53;;;;;;;9.90;4.47;;;;;;;;;;5074318;28;20090;-60
2022/01/05 03:35:20;;;;;;;13.48;3.80;;;;;;;;;;5074134;28;20037;-60
2022/01/05 03:37:45;;;;;;;18.08;5.95;;;;;;;;;;5056364;28;20036;-60
2022/01/05 03:40:11;;;;;;;8.60;4.15;;;;;;;;;;5074354;28;20409;-60
2022/01/05 03:42:36;;;;;;;11.68;4.93;;;;;;;;;;5074539;28;20071;-60
2022/01/05 03:45:02;;;;;;;12.00;4.93;;;;;;;;;;5074134;28;20429;-60
2022/01/05 03:47:27;;;;;;;11.32;4.53;;;;;;;;;;5056191;28;20044;-60
2022/01/05 03:49:52;;;;;;;13.48;4.60;;;;;;;;;;5073963;28;20036;-60
2022/01/05 03:52:18;;;;;;;11.43;4.35;;;;;;;;;;5039372;28;20032;-60
2022/01/05 03:54:44;;;;;;;11.23;4.32;;;;;;;;;;5073836;28;20048;-60
2022/01/05 03:57:09;;;;;;;10.50;4.32;;;;;;;;;;5073909;28;20385;-60
2022/01/05 03:59:35;;;;;;;9.15;4.28;;;;;;;;;;5073910;28;20394;-61
2022/01/05 04:02:00;;;;;;;10.52;4.32;;;;;;;;;;5072570;28;20056;-66
2022/01/05 04:04:25;;;;;;;12.55;4.75;;;;;;;;;;5069728;28;20040;-62
2022/01/05 04:06:51;;;;;;;14.02;4.60;;;;;;;;;;5069263;28;20396;-61
2022/01/05 04:09:16;;;;;;;14.18;5.50;;;;;;;;;;5069917;28;20166;-61
2022/01/05 04:11:42;;;;;;;10.65;4.88;;;;;;;;;;5069923;28;20032;-60
2022/01/05 04:14:08;;;;;;;11.52;4.82;;;;;;;;;;5070293;28;20032;-60
2022/01/05 04:16:33;;;;;;;19.65;7.30;;;;;;;;;;5051495;28;20403;-60
2022/01/05 04:18:59;;;;;;;11.88;5.57;;;;;;;;;;5069713;28;20104;-62
2022/01/05 04:21:24;;;;;;;14.82;5.90;;;;;;;;;;5069554;28;20045;-60
2022/01/05 04:23:50;;;;;;;16.55;5.65;;;;;;;;;;5051898;28;20043;-60
2022/01/05 04:26:15;;;;;;;19.25;6.07;;;;;;;;;;5069492;28;20375;-60
2022/01/05 04:28:41;;;;;;;14.05;6.63;;;;;;;;;;5069046;28;20060;-60
2022/01/05 04:31:06;;;;;;;18.20;6.07;;;;;;;;;;5069770;28;20036;-61
2022/01/05 04:33:31;;;;;;;12.88;5.88;;;;;;;;;;5069413;28;20078;-61
2022/01/05 04:35:57;;;;;;;10.32;5.55;;;;;;;;;;5069136;28;20099;-61
2022/01/05 04:38:22;;;;;;;17.50;6.57;;;;;;;;;;5069243;28;20058;-60
2022/01/05 04:40:48;;;;;;;16.23;6.25;;;;;;;;;;5069041;28;20028;-60
2022/01/05 04:43:13;;;;;;;17.38;6.82;;;;;;;;;;5069283;28;20063;-61
2022/01/05 04:45:38;;;;;;;13.13;6.53;;;;;;;;;;5069274;28;20129;-60
2022/01/05 04:48:04;;;;;;;14.60;6.32;;;;;;;;;;5069119;28;20441;-62
2022/01/05 04:50:29;;;;;;;12.23;5.95;;;;;;;;;;5068934;28;20037;-64
2022/01/05 04:52:55;;;;;;;13.50;6.25;;;;;;;;;;5069075;28;20078;-66
2022/01/05 04:55:20;;;;;;;14.43;6.20;;;;;;;;;;5068563;28;20416;-60
2022/01/05 04:57:45;;;;;;;12.65;6.55;;;;;;;;;;5069357;28;20025;-60
2022/01/05 05:00:11;;;;;;;12.55;6.43;;;;;;;;;;5069181;28;20495;-60
2022/01/05 05:02:37;;;;;;;14.07;7.85;;;;;;;;;;5050733;28;20491;-60
2022/01/05 05:05:02;;;;;;;13.70;6.95;;;;;;;;;;5051030;28;20043;-61
2022/01/05 05:07:27;;;;;;;14.73;6.38;;;;;;;;;;5068725;28;20047;-60
2022/01/05 05:09:53;;;;;;;14.02;6.93;;;;;;;;;;5068924;28;20068;-60
2022/01/05 05:12:18;;;;;;;15.25;6.72;;;;;;;;;;5068957;28;20036;-59
2022/01/05 05:14:44;;;;;;;15.30;7.07;;;;;;;;;;5068815;28;20391;-60
2022/01/05 05:17:10;;;;;;;12.35;6.90;;;;;;;;;;5050802;28;20127;-60
2022/01/05 05:19:35;;;;;;;15.27;7.07;;;;;;;;;;5069123;28;20499;-60
2022/01/05 05:22:01;;;;;;;17.83;7.20;;;;;;;;;;5050664;28;20044;-60
2022/01/05 05:24:26;;;;;;;16.90;7.50;;;;;;;;;;5050946;28;20044;-61
2022/01/05 05:26:52;;;;;;;19.48;7.82;;;;;;;;;;5068261;28;20575;-65
2022/01/05 05:29:17;;;;;;;15.85;7.50;;;;;;;;;;5068587;28;20045;-63
2022/01/05 05:31:42;;;;;;;14.88;8.13;;;;;;;;;;5068532;28;20048;-60
2022/01/05 05:34:08;;;;;;;17.95;8.40;;;;;;;;;;5068682;28;20138;-61
2022/01/05 05:36:33;;;;;;;17.55;8.70;;;;;;;;;;5068605;28;20032;-61
2022/01/05 05:38:59;;;;;;;19.13;9.48;;;;;;;;;;5068308;28;20035;-65
2022/01/05 05:41:24;;;;;;;22.17;9.52;;;;;;;;;;5068521;28;20094;-60
2022/01/05 05:43:50;;;;;;;27.35;10.35;;;;;;;;;;5068640;28;20438;-60
2022/01/05 05:46:15;;;;;;;22.83;11.10;;;;;;;;;;5061676;28;20118;-60
2022/01/05 05:48:41;;;;;;;22.20;11.13;;;;;;;;;;5070244;28;20043;-60
2022/01/05 05:51:06;;;;;;;21.25;11.60;;;;;;;;;;5088420;28;20036;-66
2022/01/05 05:53:32;;;;;;;28.35;11.63;;;;;;;;;;5069931;28;20494;-60
2022/01/05 05:55:57;;;;;;;18.67;11.32;;;;;;;;;;5088471;28;20024;-61
2022/01/05 05:58:23;;;;;;;21.30;12.02;;;;;;;;;;5088588;28;20047;-61
2022/01/05 06:00:48;;;;;;;25.70;12.32;;;;;;;;;;5088192;28;20445;-62
2022/01/05 06:03:14;;;;;;;28.00;12.52;;;;;;;;;;5088067;28;20036;-60
2022/01/05 06:05:40;;;;;;;24.20;13.20;;;;;;;;;;5070200;28;20040;-61
2022/01/05 06:08:05;;;;;;;25.80;12.98;;;;;;;;;;5091941;28;20032;-60
2022/01/05 06:10:31;;;;;;;26.15;12.60;;;;;;;;;;5091315;28;20028;-60
2022/01/05 06:12:57;;;;;;;28.45;14.27;;;;;;;;;;5053021;28;20105;-61
2022/01/05 06:15:22;;;;;;;28.77;13.73;;;;;;;;;;5090583;28;20557;-62
2022/01/05 06:17:48;;;;;;;33.22;14.52;;;;;;;;;;5091585;28;20032;-60
2022/01/05 06:20:13;;;;;;;30.27;14.68;;;;;;;;;;5073775;28;20142;-61
2022/01/05 06:22:39;;;;;;;33.60;15.25;;;;;;;;;;5091137;28;20056;-60
2022/01/05 06:25:05;;;;;;;33.72;16.08;;;;;;;;;;5073546;28;20028;-59
2022/01/05 06:27:31;;;;;;;32.15;14.63;;;;;;;;;;5089149;28;20039;-60
2022/01/05 06:29:56;;;;;;;32.97;15.30;;;;;;;;;;5089734;28;20028;-60
2022/01/05 06:32:22;;;;;;;28.77;15.38;;;;;;;;;;5088387;28;20040;-67
2022/01/05 06:34:47;;;;;;;34.70;15.77;;;;;;;;;;5090973;28;20795;-61
2022/01/05 06:37:15;;;;;;;35.17;15.35;;;;;;;;;;5090992;28;20116;-65
2022/01/05 06:39:41;;;;;;;32.35;14.40;;;;;;;;;;5073288;28;20032;-60
2022/01/05 06:42:06;;;;;;;30.55;14.00;;;;;;;;;;5091249;28;20032;-61
2022/01/05 06:44:32;;;;;;;29.17;13.82;;;;;;;;;;5091153;28;20027;-65
2022/01/05 06:46:57;;;;;;;24.40;12.88;;;;;;;;;;5091359;28;20040;-60
2022/01/05 06:49:23;;;;;;;28.75;13.07;;;;;;;;;;5091334;28;20033;-60
2022/01/05 06:51:49;;;;;;;29.02;13.02;;;;;;;;;;5091420;28;20135;-61
2022/01/05 06:54:14;;;;;;;31.63;12.57;;;;;;;;;;5091165;28;20103;-60
2022/01/05 06:56:40;;;;;;;32.03;12.52;;;;;;;;;;5091070;28;20094;-60
2022/01/05 06:59:05;;;;;;;23.77;12.98;;;;;;;;;;5056596;28;20028;-61
2022/01/05 07:01:30;;;;;;;28.13;12.80;;;;;;;;;;5091171;28;20143;-61
2022/01/05 07:03:56;;;;;;;26.58;13.80;;;;;;;;;;5090827;28;20142;-60
2022/01/05 07:06:22;;;;;;;21.17;11.70;;;;;;;;;;5091037;28;20438;-60
2022/01/05 07:08:47;;;;;;;28.48;13.00;;;;;;;;;;5089380;28;20119;-61
2022/01/05 07:11:12;;;;;;;31.23;13.00;;;;;;;;;;5090965;28;20484;-61
2022/01/05 07:13:38;;;;;;;24.58;12.95;;;;;;;;;;5090869;28;20036;-60
2022/01/05 07:16:03;;;;;;;25.08;13.23;;;;;;;;;;5090602;28;20040;-60
2022/01/05 07:18:29;;;;;;;28.95;13.02;;;;;;;;;;5090650;28;20064;-61
2022/01/05 07:20:54;;;;;;;32.03;12.93;;;;;;;;;;5091076;28;20031;-60
2022/01/05 07:23:20;;;;;;;26.08;12.85;;;;;;;;;;5090590;28;20028;-60
2022/01/05 07:25:45;;;;;;;30.17;15.70;;;;;;;;;;5090731;28;20036;-60
2022/01/05 07:28:11;;;;;;;30.38;14.32;;;;;;;;;;5090776;28;20020;-61
2022/01/05 07:30:37;;;;;;;32.78;14.18;;;;;;;;;;5090610;28;20044;-63
2022/01/05 07:33:02;;;;;;;27.55;13.40;;;;;;;;;;5072377;28;20028;-62
2022/01/05 07:35:27;;;;;;;25.30;13.60;;;;;;;;;;5090636;28;20032;-59
2022/01/05 07:37:53;;;;;;;30.35;13.63;;;;;;;;;;5090412;28;20387;-60
2022/01/05 07:40:18;;;;;;;28.35;13.07;;;;;;;;;;5090732;28;20046;-60
2022/01/05 07:42:44;;;;;;;30.35;14.57;;;;;;;;;;5090460;28;20149;-60
2022/01/05 07:45:09;;;;;;;29.00;12.52;;;;;;;;;;5090540;28;20494;-61
2022/01/05 07:47:35;;;;;;;23.95;12.63;;;;;;;;;;5072358;28;20039;-66
2022/01/05 07:50:00;;;;;;;23.30;11.85;;;;;;;;;;5090673;28;20107;-62
2022/01/05 07:52:26;;;;;;;21.70;11.40;;;;;;;;;;5090394;28;20043;-61
2022/01/05 07:54:52;;;;;;;29.30;12.32;;;;;;;;;;5071970;28;20031;-60
2022/01/05 07:57:18;;;;;;;22.48;11.93;;;;;;;;;;5072211;28;20040;-61
2022/01/05 07:59:43;;;;;;;25.77;12.20;;;;;;;;;;5090335;28;20032;-60
2022/01/05 08:02:09;;;;;;;25.83;12.20;;;;;;;;;;5090103;28;20109;-62
2022/01/05 08:04:34;;;;;;;32.13;11.23;;;;;;;;;;5089667;28;20128;-65
2022/01/05 08:07:01;;;;;;;24.27;10.23;;;;;;;;;;5071996;28;20020;-61
2022/01/05 08:09:29;;;;;;;18.40;8.45;;;;;;;;;;5071819;28;20089;-62
2022/01/05 08:11:55;;;;;;;22.67;7.97;;;;;;;;;;5072099;28;20450;-60
2022/01/05 08:14:20;;;;;;;14.70;7.20;;;;;;;;;;5089889;28;20032;-61
2022/01/05 08:16:45;;;;;;;17.13;7.10;;;;;;;;;;5071881;28;20062;-60
2022/01/05 08:19:11;;;;;;;16.90;6.38;;;;;;;;;;5090078;28;20056;-59
2022/01/05 08:21:36;;;;;;;19.25;6.63;;;;;;;;;;5089181;28;20111;-62
2022/01/05 08:24:02;;;;;;;15.02;6.38;;;;;;;;;;5068420;28;20066;-60
2022/01/05 08:26:27;;;;;;;13.02;6.30;;;;;;;;;;5088216;28;20295;-61
2022/01/05 08:28:54;;;;;;;11.55;5.57;;;;;;;;;;5086938;28;20360;-60
2022/01/05 08:31:19;;;;;;;12.20;5.38;;;;;;;;;;5088639;28;20070;-61
2022/01/05 08:33:44;;;;;;;18.00;5.88;;;;;;;;;;5089616;28;20043;-60
2022/01/05 08:36:10;;;;;;;15.95;5.82;;;;;;;;;;5088898;28;20039;-60
2022/01/05 08:38:37;;;;;;;17.33;6.20;;;;;;;;;;5089139;28;20086;-60
2022/01/05 08:41:02;;;;;;;15.48;5.80;;;;;;;;;;5089755;28;20040;-59
2022/01/05 08:43:28;;;;;;;13.82;5.57;;;;;;;;;;5089367;28;20040;-62
2022/01/05 08:45:53;;;;;;;12.25;5.57;;;;;;;;;;5087783;28;20387;-60
2022/01/05 08:48:19;;;;;;;15.20;7.00;;;;;;;;;;5087530;28;20479;-60
2022/01/05 08:50:44;;;;;;;10.65;6.05;;;;;;;;;;5086555;28;20432;-61
2022/01/05 08:53:10;;;;;;;13.43;5.90;;;;;;;;;;5087358;28;20043;-61
2022/01/05 08:55:37;;;;;;;13.10;4.90;;;;;;;;;;5087612;28;20032;-64
2022/01/05 08:58:04;;;;;;;13.20;4.75;;;;;;;;;;5087681;28;20050;-60
2022/01/05 09:00:30;;;;;;;11.80;4.93;;;;;;;;;;5088505;28;20035;-60
2022/01/05 09:02:56;;;;;;;12.50;6.05;;;;;;;;;;5088854;28;20057;-60
2022/01/05 09:05:22;;;;;;;11.13;4.72;;;;;;;;;;5089312;28;20031;-60
2022/01/05 09:07:47;;;;;;;12.93;5.00;;;;;;;;;;5088796;28;20044;-59
2022/01/05 09:10:13;;;;;;;14.65;4.85;;;;;;;;;;5086662;28;20062;-62
2022/01/05 09:12:39;;;;;;;10.90;4.75;;;;;;;;;;5068542;28;20036;-61
2022/01/05 09:15:05;;;;;;;13.15;4.78;;;;;;;;;;5068489;28;20039;-59
2022/01/05 09:17:31;;;;;;;11.90;4.93;;;;;;;;;;5068830;28;20038;-58
2022/01/05 09:19:57;;;;;;;13.48;5.22;;;;;;;;;;5068924;28;20033;-62
2022/01/05 09:22:23;;;;;;;14.20;4.82;;;;;;;;;;5080696;28;20032;-59
2022/01/05 09:24:50;;;;;;;14.07;4.57;;;;;;;;;;5088430;28;20038;-60
2022/01/05 09:27:16;;;;;;;17.60;5.18;;;;;;;;;;5088038;28;20156;-59
2022/01/05 09:29:43;;;;;;;11.40;5.20;;;;;;;;;;5088492;28;20479;-62
2022/01/05 09:32:09;;;;;;;13.23;5.57;;;;;;;;;;5088345;28;20044;-63
2022/01/05 09:34:38;;;;;;;17.20;6.57;;;;;;;;;;5053625;28;20088;-64
2022/01/05 09:37:14;;;;;;;15.70;6.22;;;;;;;;;;5070244;28;20031;-66
2022/01/05 09:42:24;;;;;;;14.38;5.30;;;;;;;;;;5077199;28;20048;-65
2022/01/05 09:44:52;;;;;;;14.38;5.03;;;;;;;;;;5066563;28;20028;-65
2022/01/05 09:47:36;;;;;;;12.48;4.57;;;;;;;;;;5066935;28;20085;-65
2022/01/05 09:50:04;;;;;;;16.30;4.47;;;;;;;;;;5067151;28;20032;-65
2022/01/05 09:52:31;;;;;;;10.25;4.57;;;;;;;;;;5067152;28;20434;-64
2022/01/05 09:54:57;;;;;;;14.82;4.63;;;;;;;;;;5049889;28;20131;-65
2022/01/05 09:57:22;;;;;;;14.68;4.63;;;;;;;;;;5068195;28;20465;-64
2022/01/05 09:59:50;;;;;;;17.67;6.57;;;;;;;;;;5083871;28;20128;-64
2022/01/05 10:02:16;;;;;;;34.70;14.93;;;;;;;;;;5050011;28;20080;-64
2022/01/05 10:04:43;;;;;;;14.50;5.60;;;;;;;;;;5065967;28;20047;-65
2022/01/05 10:07:10;;;;;;;17.80;5.60;;;;;;;;;;5052089;28;20041;-65
2022/01/05 10:09:37;;;;;;;16.40;4.90;;;;;;;;;;5068159;28;20127;-64
2022/01/05 10:12:03;;;;;;;18.55;5.30;;;;;;;;;;5053529;28;20063;-66
2022/01/05 10:14:30;;;;;;;11.05;5.20;;;;;;;;;;5052955;28;20062;-64
2022/01/05 10:17:04;;;;;;;13.23;5.05;;;;;;;;;;5053042;28;20032;-65
2022/01/05 10:19:31;;;;;;;14.38;5.75;;;;;;;;;;5069253;28;20028;-69
2022/01/05 10:21:57;;;;;;;15.93;7.82;;;;;;;;;;5069452;28;20039;-72
2022/01/05 10:24:43;;;;;;;14.50;5.18;;;;;;;;;;5052717;28;20046;-66
2022/01/05 10:27:17;;;;;;;15.38;5.80;;;;;;;;;;5058690;28;20039;-66
2022/01/05 10:29:52;;;;;;;15.57;6.43;;;;;;;;;;5081001;28;20467;-65
2022/01/05 10:32:18;;;;;;;16.27;7.20;;;;;;;;;;5046921;28;20438;-66
2022/01/05 10:34:57;;;;;;;11.48;5.20;;;;;;;;;;5069228;28;20101;-65
2022/01/05 10:37:24;;;;;;;14.90;4.97;;;;;;;;;;5069785;28;20934;-64
2022/01/05 10:40:03;;;;;;;15.02;5.90;;;;;;;;;;5086107;28;20465;-68
2022/01/05 10:42:30;;;;;;;17.42;4.75;;;;;;;;;;5069494;28;20600;-67
2022/01/05 10:44:55;;;;;;;17.33;5.70;;;;;;;;;;5087452;28;20040;-66
2022/01/05 10:47:20;;;;;;;12.45;5.05;;;;;;;;;;5087709;28;20032;-67
2022/01/05 10:49:46;;;;;;;11.23;4.60;;;;;;;;;;5087358;28;20040;-74
2022/01/05 10:52:23;;;;;;;12.32;5.15;;;;;;;;;;5087941;28;20028;-67
2022/01/05 10:54:49;;;;;;;16.83;6.43;;;;;;;;;;5055726;28;20059;-66
2022/01/05 10:57:16;;;;;;;13.88;5.00;;;;;;;;;;5090262;28;20440;-68
2022/01/05 10:59:48;;;;;;;11.73;4.32;;;;;;;;;;5072756;28;20036;-69
2022/01/05 11:02:27;;;;;;;11.38;4.18;;;;;;;;;;5090550;28;20068;-71
2022/01/05 11:05:08;;;;;;;18.50;4.60;;;;;;;;;;5072081;28;20435;-69
2022/01/05 11:07:37;;;;;;;12.32;5.15;;;;;;;;;;5090848;28;20043;-67
2022/01/05 11:10:08;;;;;;;13.48;5.30;;;;;;;;;;5072709;28;20066;-66
2022/01/05 11:12:36;;;;;;;11.48;5.28;;;;;;;;;;5086466;28;20043;-69
2022/01/05 11:15:20;;;;;;;16.45;5.63;;;;;;;;;;5072022;28;20036;-67
2022/01/05 11:18:04;;;;;;;16.83;4.78;;;;;;;;;;5072015;28;20032;-74
2022/01/05 11:20:30;;;;;;;11.13;4.32;;;;;;;;;;5089934;28;20067;-69
2022/01/05 11:22:55;;;;;;;12.98;4.50;;;;;;;;;;5090166;28;20117;-69
2022/01/05 11:25:21;;;;;;;15.68;5.07;;;;;;;;;;5089968;28;20093;-66
2022/01/05 11:27:46;;;;;;;15.10;6.03;;;;;;;;;;5089812;28;20072;-69
2022/01/05 11:30:12;;;;;;;11.75;4.85;;;;;;;;;;5055043;28;20024;-67
2022/01/05 11:32:38;;;;;;;14.80;4.60;;;;;;;;;;5089616;28;20042;-75
2022/01/05 11:35:05;;;;;;;12.70;4.65;;;;;;;;;;5072391;28;20043;-67
2022/01/05 11:37:30;;;;;;;10.35;4.43;;;;;;;;;;5068897;28;20506;-66
2022/01/05 11:39:56;;;;;;;14.43;4.30;;;;;;;;;;5088603;28;20074;-64
2022/01/05 11:42:29;;;;;;;14.25;4.90;;;;;;;;;;5068629;28;20032;-69
2022/01/05 11:44:55;;;;;;;15.55;4.47;;;;;;;;;;5059909;28;20442;-70
2022/01/05 11:47:24;;;;;;;13.70;4.93;;;;;;;;;;5089722;28;20085;-66
2022/01/05 11:49:54;;;;;;;12.18;4.05;;;;;;;;;;5051528;28;20056;-65
2022/01/05 11:52:19;;;;;;;;;;;;;;;;;;5071502;28;20170;-67
2022/01/05 11:55:14;;;;;;;10.57;4.90;;;;;;;;;;5065400;28;19920;-68
2022/01/05 11:57:59;;;;;;;16.65;6.05;;;;;;;;;;5073427;28;20353;-75
2022/01/05 12:00:25;;;;;;;12.00;5.38;;;;;;;;;;5090637;28;20039;-66
2022/01/05 12:02:50;;;;;;;14.88;4.30;;;;;;;;;;5089648;28;20028;-67
2022/01/05 12:05:34;;;;;;;17.88;5.32;;;;;;;;;;5089386;28;20455;-67
2022/01/05 12:07:59;;;;;;;15.02;4.32;;;;;;;;;;5070696;28;20032;-68
2022/01/05 12:10:45;;;;;;;15.23;4.97;;;;;;;;;;5087135;28;20022;-71
2022/01/05 12:13:10;;;;;;;15.48;5.20;;;;;;;;;;5079581;28;20040;-68
2022/01/05 12:15:39;;;;;;;15.52;4.40;;;;;;;;;;5087612;28;20047;-77
2022/01/05 12:18:05;;;;;;;12.23;4.93;;;;;;;;;;5086012;28;20107;-68
2022/01/05 12:20:34;;;;;;;12.32;4.03;;;;;;;;;;5088175;28;20036;-71
2022/01/05 12:23:20;;;;;;;11.82;5.18;;;;;;;;;;5087841;28;20067;-66
2022/01/05 12:26:02;;;;;;;10.52;4.18;;;;;;;;;;5086153;28;20126;-67
2022/01/05 12:28:28;;;;;;;13.75;4.10;;;;;;;;;;5087230;28;20040;-72
2022/01/05 12:30:54;;;;;;;15.48;4.05;;;;;;;;;;5087436;28;20055;-67
2022/01/05 12:33:19;;;;;;;14.50;4.72;;;;;;;;;;5087469;28;20074;-67
2022/01/05 12:35:57;;;;;;;11.27;4.47;;;;;;;;;;5070508;28;20143;-66
2022/01/05 12:38:33;;;;;;;11.30;4.95;;;;;;;;;;5089397;28;20032;-66
2022/01/05 12:41:18;;;;;;;12.57;4.78;;;;;;;;;;5071244;28;20032;-67
2022/01/05 12:43:45;;;;;;;14.93;4.63;;;;;;;;;;5089250;28;20031;-67
2022/01/05 12:46:12;;;;;;;14.48;5.03;;;;;;;;;;5071417;28;20093;-67
2022/01/05 12:48:40;;;;;;;17.42;5.75;;;;;;;;;;5070497;28;20123;-69
2022/01/05 12:51:20;;;;;;;16.05;6.60;;;;;;;;;;5054579;28;20132;-66
2022/01/05 12:53:45;;;;;;;;;;;;;;;;;;5070428;28;20036;-68
2022/01/05 12:56:18;;;;;;;12.80;6.05;;;;;;;;;;5071095;28;19919;-68
2022/01/05 12:58:43;;;;;;;15.32;5.60;;;;;;;;;;5088135;28;20043;-66
2022/01/05 13:01:08;;;;;;;17.02;5.72;;;;;;;;;;5089122;28;20024;-67
2022/01/05 13:03:34;;;;;;;10.68;5.60;;;;;;;;;;5088178;28;20035;-70
2022/01/05 13:06:14;;;;;;;15.30;5.97;;;;;;;;;;5070599;28;20085;-68
2022/01/05 13:08:51;;;;;;;19.15;6.45;;;;;;;;;;5053987;28;20036;-68
2022/01/05 13:11:40;;;;;;;15.82;6.28;;;;;;;;;;5054427;28;20403;-67
2022/01/05 13:14:14;;;;;;;15.07;5.72;;;;;;;;;;5054010;28;20032;-67
2022/01/05 13:16:40;;;;;;;11.40;5.47;;;;;;;;;;5053481;28;20069;-76
2022/01/05 13:19:10;;;;;;;15.10;6.32;;;;;;;;;;5088285;28;20379;-68
2022/01/05 13:21:42;;;;;;;15.02;6.60;;;;;;;;;;5088554;28;20403;-68
2022/01/05 13:24:08;;;;;;;13.38;5.72;;;;;;;;;;5052459;28;20029;-67
2022/01/05 13:26:33;;;;;;;15.55;6.32;;;;;;;;;;5086517;28;20090;-70
2022/01/05 13:29:18;;;;;;;13.10;5.80;;;;;;;;;;5086336;28;20046;-67
2022/01/05 13:31:54;;;;;;;16.90;5.85;;;;;;;;;;5086869;28;20510;-66
2022/01/05 13:34:27;;;;;;;12.07;5.93;;;;;;;;;;5052227;28;20035;-65
2022/01/05 13:36:53;;;;;;;16.58;6.30;;;;;;;;;;5052007;28;20044;-69
2022/01/05 13:39:39;;;;;;;13.88;6.10;;;;;;;;;;5088031;28;20063;-74
2022/01/05 13:42:05;;;;;;;20.10;6.25;;;;;;;;;;5074325;28;20044;-65
2022/01/05 13:44:31;;;;;;;15.40;6.22;;;;;;;;;;5049397;28;20065;-74
2022/01/05 13:46:56;;;;;;;16.55;6.95;;;;;;;;;;5088033;28;20122;-66
2022/01/05 13:49:23;;;;;;;11.32;6.13;;;;;;;;;;5088280;28;20390;-67
2022/01/05 13:52:08;;;;;;;19.27;6.82;;;;;;;;;;5053200;28;20127;-66
2022/01/05 13:54:35;;;;;;;12.77;5.43;;;;;;;;;;5069911;28;20483;-67
2022/01/05 13:57:00;;;;;;;18.92;6.45;;;;;;;;;;5052304;28;20043;-68
2022/01/05 13:59:36;;;;;;;16.60;6.60;;;;;;;;;;5086448;28;20028;-66
2022/01/05 14:02:01;;;;;;;14.32;7.03;;;;;;;;;;5066656;28;20032;-67
2022/01/05 14:04:27;;;;;;;14.73;7.47;;;;;;;;;;5084067;28;20035;-70
2022/01/05 14:06:59;;;;;;;19.05;7.45;;;;;;;;;;5085887;28;20048;-69
2022/01/05 14:09:29;;;;;;;15.80;7.40;;;;;;;;;;5068064;28;20036;-67
2022/01/05 14:11:57;;;;;;;;;;;;;;;;;;5069409;28;20605;-66
2022/01/05 14:14:23;;;;;;;22.40;7.72;;;;;;;;;;5088134;28;19955;-67
2022/01/05 14:16:48;;;;;;;18.13;7.68;;;;;;;;;;5087479;28;20178;-67
2022/01/05 14:19:15;;;;;;;17.38;7.10;;;;;;;;;;5088082;28;20425;-66
2022/01/05 14:21:42;;;;;;;20.25;7.43;;;;;;;;;;5086864;28;20032;-67
2022/01/05 14:24:09;;;;;;;19.10;7.93;;;;;;;;;;5069746;28;20040;-69
2022/01/05 14:26:37;;;;;;;24.08;7.93;;;;;;;;;;5070302;28;20063;-64
2022/01/05 14:29:03;;;;;;;20.10;7.95;;;;;;;;;;5091292;28;20024;-66
2022/01/05 14:31:45;;;;;;;18.42;7.20;;;;;;;;;;5073059;28;20032;-66
2022/01/05 14:34:12;;;;;;;20.95;7.07;;;;;;;;;;5073096;28;20078;-67